Time;durP1;ratioP1;P1;durP2;ratioP2;P2;SDS_P1;SDS_P2;PMS_P1;PMS_P2;Temp;Humidity;BMP_temperature;BMP_pressure;BME280_temperature;BME280_humidity;BME280_pressure;Samples;Min_cycle;Max_cycle;Signal;HPM_P1;HPM_P2
2022/06/29 00:00:17;;;;;;;1.17;1.08;;;23.40;96.40;;;;;;4939617;29;20038;-93
2022/06/29 00:02:44;;;;;;;0.73;0.73;;;23.50;96.50;;;;;;4939402;29;20031;-93
2022/06/29 00:05:15;;;;;;;0.40;0.40;;;23.50;96.40;;;;;;4939381;29;20462;-93
2022/06/29 00:07:42;;;;;;;0.40;0.40;;;23.60;96.70;;;;;;4939425;29;20035;-93
2022/06/29 00:10:09;;;;;;;1.20;0.65;;;23.60;96.70;;;;;;4939699;29;20453;-93
2022/06/29 00:12:35;;;;;;;0.60;0.55;;;23.50;96.90;;;;;;4940483;29;20023;-92
2022/06/29 00:15:02;;;;;;;0.47;0.45;;;23.60;96.60;;;;;;4959704;28;20024;-94
2022/06/29 00:17:31;;;;;;;0.30;0.30;;;23.50;96.50;;;;;;4939376;29;20402;-93
2022/06/29 00:19:59;;;;;;;0.90;0.90;;;23.50;96.80;;;;;;4939201;29;20027;-93
2022/06/29 00:22:25;;;;;;;0.68;0.68;;;23.40;96.90;;;;;;4939223;28;20023;-93
2022/06/29 00:24:51;;;;;;;0.38;0.38;;;23.40;96.80;;;;;;4939335;29;20035;-93
2022/06/29 00:27:16;;;;;;;0.10;0.10;;;23.30;96.50;;;;;;4939386;29;20051;-93
2022/06/29 00:29:42;;;;;;;0.57;0.57;;;23.30;97.00;;;;;;4939155;29;20031;-93
2022/06/29 00:32:08;;;;;;;0.80;0.80;;;23.30;96.60;;;;;;4944396;28;20027;-94
2022/06/29 00:34:35;;;;;;;0.77;0.77;;;23.30;96.40;;;;;;4945486;29;20038;-93
2022/06/29 00:37:01;;;;;;;0.43;0.43;;;23.30;96.90;;;;;;4945592;29;20110;-93
2022/06/29 00:39:26;;;;;;;1.20;1.10;;;23.30;97.40;;;;;;4946171;29;20063;-94
2022/06/29 00:41:52;;;;;;;1.20;1.10;;;23.30;97.10;;;;;;4945445;29;20114;-94
2022/06/29 00:44:20;;;;;;;1.58;1.48;;;23.20;97.40;;;;;;4945983;29;20186;-93
2022/06/29 00:46:48;;;;;;;6.30;1.52;;;23.20;97.30;;;;;;4945506;29;20038;-93
2022/06/29 00:49:15;;;;;;;1.15;1.15;;;23.10;97.60;;;;;;4945397;29;20482;-94
2022/06/29 00:51:46;;;;;;;3.10;0.60;;;23.10;97.50;;;;;;4945442;29;20027;-93
2022/06/29 00:54:23;;;;;;;0.32;0.32;;;23.10;97.30;;;;;;4945410;28;20019;-94
2022/06/29 00:56:50;;;;;;;0.68;0.43;;;23.00;97.30;;;;;;4945960;29;20051;-94
2022/06/29 00:59:24;;;;;;;0.65;0.50;;;23.00;98.10;;;;;;4945591;28;20070;-93
2022/06/29 01:01:50;;;;;;;0.50;0.50;;;22.90;98.40;;;;;;4945179;29;20034;-94
2022/06/29 01:04:15;;;;;;;0.73;0.70;;;22.90;98.10;;;;;;4945333;29;20031;-93
2022/06/29 01:06:41;;;;;;;0.55;0.43;;;22.90;98.20;;;;;;4945341;29;20033;-93
2022/06/29 01:09:07;;;;;;;0.70;0.70;;;22.80;99.10;;;;;;4945155;29;20031;-93
2022/06/29 01:11:34;;;;;;;0.70;0.70;;;22.80;98.80;;;;;;4945038;29;20070;-94
2022/06/29 01:14:01;;;;;;;1.08;1.08;;;22.70;99.00;;;;;;4944979;29;20023;-93
2022/06/29 01:16:27;;;;;;;0.65;0.65;;;22.60;99.10;;;;;;4945407;29;20035;-93
2022/06/29 01:18:52;;;;;;;0.55;0.55;;;22.50;99.50;;;;;;4944996;28;20149;-94
2022/06/29 01:21:22;;;;;;;1.23;1.13;;;22.50;99.50;;;;;;4946025;29;20037;-94
2022/06/29 01:23:48;;;;;;;0.55;0.55;;;22.40;99.90;;;;;;4945489;29;20130;-93
2022/06/29 01:26:14;;;;;;;0.93;0.88;;;22.40;99.90;;;;;;4945176;29;20073;-93
2022/06/29 01:28:46;;;;;;;0.80;0.80;;;22.40;99.90;;;;;;4945071;29;20027;-94
2022/06/29 01:31:16;;;;;;;0.50;0.50;;;22.40;99.90;;;;;;4945305;29;20471;-93
2022/06/29 01:33:43;;;;;;;1.73;1.30;;;22.30;99.90;;;;;;4945636;29;20055;-93
2022/06/29 01:36:09;;;;;;;1.55;1.33;;;22.20;99.90;;;;;;4945200;29;20081;-94
2022/06/29 01:38:36;;;;;;;0.57;0.57;;;22.20;99.90;;;;;;4945170;29;20113;-93
2022/06/29 01:41:04;;;;;;;0.60;0.60;;;22.20;99.90;;;;;;4945196;29;20541;-93
2022/06/29 01:43:31;;;;;;;2.25;0.40;;;22.20;99.90;;;;;;4941934;29;20035;-94
2022/06/29 01:45:57;;;;;;;0.25;0.25;;;22.10;99.90;;;;;;4941910;29;20111;-94
2022/06/29 01:48:23;;;;;;;1.65;0.30;;;22.10;99.90;;;;;;4941912;29;20028;-93
2022/06/29 01:50:49;;;;;;;0.90;0.90;;;22.10;99.90;;;;;;4941834;29;20031;-92
2022/06/29 01:53:15;;;;;;;0.43;0.43;;;22.00;99.90;;;;;;4942790;29;20028;-93
2022/06/29 01:55:40;;;;;;;1.00;0.98;;;22.00;99.90;;;;;;4942665;29;20363;-94
2022/06/29 01:58:06;;;;;;;0.40;0.40;;;22.00;99.90;;;;;;4958361;28;20026;-92
2022/06/29 02:00:32;;;;;;;1.17;1.08;;;22.00;99.90;;;;;;4946942;29;20379;-93
2022/06/29 02:02:57;;;;;;;0.47;0.47;;;22.00;99.90;;;;;;4941660;29;20152;-93
2022/06/29 02:05:23;;;;;;;0.05;0.05;;;22.00;99.90;;;;;;4941716;29;20019;-93
2022/06/29 02:07:49;;;;;;;2.05;0.80;;;22.00;99.90;;;;;;4941668;29;20032;-93
2022/06/29 02:10:14;;;;;;;1.40;1.00;;;22.00;99.90;;;;;;4941409;29;20032;-93
2022/06/29 02:12:40;;;;;;;0.73;0.73;;;22.00;99.90;;;;;;4941521;29;20386;-94
2022/06/29 02:15:07;;;;;;;0.77;0.77;;;22.00;99.90;;;;;;4941654;29;20023;-93
2022/06/29 02:17:33;;;;;;;0.20;0.15;;;21.90;99.90;;;;;;4941370;29;20047;-93
2022/06/29 02:19:59;;;;;;;0.20;0.20;;;21.90;99.90;;;;;;4941312;29;20042;-93
2022/06/29 02:22:24;;;;;;;0.55;0.55;;;21.90;99.90;;;;;;4941315;29;20027;-93
2022/06/29 02:24:50;;;;;;;1.13;1.05;;;21.90;99.90;;;;;;4941293;29;20501;-93
2022/06/29 02:27:16;;;;;;;0.55;0.55;;;21.90;99.90;;;;;;4941207;29;20031;-93
2022/06/29 02:29:42;;;;;;;1.27;1.17;;;21.90;99.90;;;;;;4941457;29;20050;-93
2022/06/29 02:34:52;;;;;;;0.35;0.35;;;21.90;99.90;;;;;;4958717;29;20057;-94
2022/06/29 02:37:17;;;;;;;0.60;0.60;;;21.80;99.90;;;;;;4941347;29;20059;-92
2022/06/29 02:39:44;;;;;;;0.75;0.50;;;21.80;99.90;;;;;;4940857;29;20035;-93
2022/06/29 02:42:14;;;;;;;1.58;1.52;;;21.90;99.90;;;;;;4940847;29;20023;-93
2022/06/29 02:44:40;;;;;;;1.33;1.23;;;21.90;99.90;;;;;;4940961;29;20065;-92
2022/06/29 02:47:07;;;;;;;1.23;1.23;;;21.90;99.90;;;;;;4940891;29;20027;-93
2022/06/29 02:49:33;;;;;;;1.40;1.10;;;22.00;99.90;;;;;;4940657;29;20035;-92
2022/06/29 02:51:59;;;;;;;1.02;0.77;;;22.10;99.90;;;;;;4940844;29;20122;-93
2022/06/29 02:54:25;;;;;;;1.85;1.25;;;22.10;99.90;;;;;;4939606;29;20032;-92
2022/06/29 02:56:51;;;;;;;1.50;1.40;;;22.20;99.90;;;;;;4940759;29;20030;-93
2022/06/29 02:59:17;;;;;;;1.08;1.08;;;22.20;99.90;;;;;;4940560;29;20023;-93
2022/06/29 03:01:42;;;;;;;1.77;1.67;;;22.20;99.90;;;;;;4940776;29;20051;-92
2022/06/29 03:04:08;;;;;;;4.68;1.23;;;22.30;99.90;;;;;;4940698;29;20050;-93
2022/06/29 03:06:34;;;;;;;0.63;0.63;;;22.30;99.90;;;;;;4940619;29;20035;-92
2022/06/29 03:08:59;;;;;;;0.68;0.68;;;22.30;99.90;;;;;;4940656;29;20087;-93
2022/06/29 03:11:25;;;;;;;0.35;0.35;;;22.30;99.90;;;;;;4940464;29;20483;-93
2022/06/29 03:13:51;;;;;;;2.97;0.57;;;22.30;99.90;;;;;;4940688;29;20026;-93
2022/06/29 03:16:17;;;;;;;1.90;1.20;;;22.20;99.90;;;;;;4940398;29;20028;-93
2022/06/29 03:18:43;;;;;;;0.32;0.30;;;22.30;99.90;;;;;;4940415;29;20075;-93
2022/06/29 03:21:09;;;;;;;1.13;0.65;;;22.30;99.90;;;;;;4940492;29;20358;-93
2022/06/29 03:23:34;;;;;;;1.65;1.40;;;22.40;99.90;;;;;;4940164;29;20117;-92
2022/06/29 03:26:00;;;;;;;1.75;1.10;;;22.40;99.90;;;;;;4940333;29;20480;-93
2022/06/29 03:28:26;;;;;;;0.77;0.70;;;22.40;99.90;;;;;;4940063;29;20467;-93
2022/06/29 03:30:51;;;;;;;0.77;0.77;;;22.50;99.90;;;;;;4940181;29;20114;-93
2022/06/29 03:33:17;;;;;;;1.48;1.38;;;22.60;99.90;;;;;;4940033;29;20062;-93
2022/06/29 03:35:43;;;;;;;2.72;1.70;;;22.70;99.90;;;;;;4939784;29;20030;-92
2022/06/29 03:38:08;;;;;;;1.48;1.35;;;22.80;99.90;;;;;;4940038;29;20517;-93
2022/06/29 03:40:34;;;;;;;3.08;1.80;;;22.90;99.90;;;;;;4941083;29;20038;-93
2022/06/29 03:43:00;;;;;;;1.50;1.50;;;23.00;99.90;;;;;;4958827;28;20032;-93
2022/06/29 03:45:25;;;;;;;3.13;2.25;;;23.10;99.90;;;;;;4940021;29;20042;-92
2022/06/29 03:47:51;;;;;;;1.75;1.65;;;23.20;99.90;;;;;;4939959;29;20027;-92
2022/06/29 03:50:17;;;;;;;1.10;1.10;;;23.30;99.90;;;;;;4939729;29;20118;-93
2022/06/29 03:52:42;;;;;;;2.33;2.03;;;23.40;99.90;;;;;;4939835;29;20023;-93
2022/06/29 03:55:08;;;;;;;3.88;2.22;;;23.50;99.90;;;;;;4939785;29;20394;-93
2022/06/29 03:57:34;;;;;;;1.27;1.17;;;23.70;99.90;;;;;;4940053;29;20078;-94
2022/06/29 04:00:00;;;;;;;1.17;1.10;;;23.70;99.90;;;;;;4939629;29;20027;-94
2022/06/29 04:02:26;;;;;;;1.33;1.23;;;23.80;99.90;;;;;;4939605;29;20055;-94
2022/06/29 04:04:52;;;;;;;1.40;1.40;;;23.90;99.90;;;;;;4939562;28;20033;-93
2022/06/29 04:07:18;;;;;;;1.58;1.48;;;24.00;99.90;;;;;;4939058;29;20501;-93
2022/06/29 04:09:44;;;;;;;1.30;1.20;;;24.00;99.90;;;;;;4939545;29;20032;-93
2022/06/29 04:12:10;;;;;;;1.25;0.85;;;24.10;99.90;;;;;;4939457;29;20027;-93
2022/06/29 04:14:36;;;;;;;3.97;1.65;;;24.10;99.90;;;;;;4939402;29;20020;-92
2022/06/29 04:17:02;;;;;;;1.95;1.70;;;24.10;99.90;;;;;;4939453;29;20035;-94
2022/06/29 04:19:28;;;;;;;2.50;2.30;;;24.10;99.90;;;;;;4939535;29;20117;-94
2022/06/29 04:21:54;;;;;;;5.13;1.92;;;24.10;99.90;;;;;;4939172;29;20034;-94
2022/06/29 04:24:21;;;;;;;1.10;1.10;;;24.30;99.90;;;;;;4939446;29;20497;-92
2022/06/29 04:26:47;;;;;;;2.58;1.52;;;24.30;99.90;;;;;;4939611;29;20489;-93
2022/06/29 04:29:12;;;;;;;1.60;1.50;;;24.40;99.90;;;;;;4939242;29;20027;-92
2022/06/29 04:31:38;;;;;;;1.50;1.25;;;24.50;99.90;;;;;;4939129;29;20034;-93
2022/06/29 04:34:04;;;;;;;1.00;0.73;;;24.50;99.90;;;;;;4939209;29;20466;-92
2022/06/29 04:36:30;;;;;;;0.95;0.95;;;24.50;99.90;;;;;;4939295;29;20026;-92
2022/06/29 04:38:56;;;;;;;1.08;1.08;;;24.60;99.90;;;;;;4939679;29;20027;-93
2022/06/29 04:41:22;;;;;;;2.10;1.88;;;24.70;99.90;;;;;;4939219;29;20074;-92
2022/06/29 04:43:48;;;;;;;2.22;2.03;;;24.80;99.90;;;;;;4939388;29;20113;-92
2022/06/29 04:46:20;;;;;;;1.90;1.80;;;24.70;99.90;;;;;;4939309;29;20038;-94
2022/06/29 04:48:54;;;;;;;0.93;0.93;;;24.70;99.90;;;;;;4939189;29;20030;-92
2022/06/29 04:51:20;;;;;;;4.10;2.00;;;24.70;99.90;;;;;;4939021;29;20446;-93
2022/06/29 04:53:46;;;;;;;1.45;1.20;;;24.70;99.90;;;;;;4939186;29;20481;-93
2022/06/29 04:56:13;;;;;;;1.20;1.13;;;24.80;99.90;;;;;;4938901;29;20023;-93
2022/06/29 04:58:39;;;;;;;2.22;2.13;;;24.80;99.90;;;;;;4939132;29;20027;-94
2022/06/29 05:01:05;;;;;;;2.10;1.67;;;24.90;99.90;;;;;;4939277;29;20162;-93
2022/06/29 05:03:31;;;;;;;2.13;2.00;;;25.00;99.90;;;;;;4939161;29;20035;-93
2022/06/29 05:05:57;;;;;;;7.70;1.98;;;25.20;99.90;;;;;;4939068;29;20027;-93
2022/06/29 05:08:23;;;;;;;1.95;1.42;;;25.30;99.90;;;;;;4938779;29;20090;-94
2022/06/29 05:10:48;;;;;;;4.07;1.67;;;25.40;99.90;;;;;;4939082;29;20027;-93
2022/06/29 05:13:14;;;;;;;0.65;0.65;;;25.50;99.90;;;;;;4939077;29;20020;-93
2022/06/29 05:15:40;;;;;;;1.65;1.55;;;25.60;99.90;;;;;;4938979;29;20024;-93
2022/06/29 05:18:06;;;;;;;2.38;1.95;;;25.60;99.60;;;;;;4940010;29;20075;-93
2022/06/29 05:20:32;;;;;;;1.23;1.23;;;25.70;99.40;;;;;;4942542;29;20059;-93
2022/06/29 05:22:58;;;;;;;2.13;1.88;;;25.80;99.30;;;;;;4954708;28;20027;-92
2022/06/29 05:25:24;;;;;;;2.80;1.77;;;25.80;99.50;;;;;;4950776;29;20035;-93
2022/06/29 05:27:50;;;;;;;2.17;1.20;;;25.80;99.30;;;;;;4942372;29;20394;-93
2022/06/29 05:30:16;;;;;;;1.80;1.70;;;25.90;99.70;;;;;;4942589;29;20031;-93
2022/06/29 05:32:42;;;;;;;1.55;1.45;;;26.00;99.40;;;;;;4942621;29;20034;-93
2022/06/29 05:35:09;;;;;;;0.85;0.85;;;26.20;99.70;;;;;;4942140;29;20033;-94
2022/06/29 05:37:35;;;;;;;1.05;1.05;;;26.30;99.20;;;;;;4942287;29;20027;-93
2022/06/29 05:40:01;;;;;;;1.85;1.13;;;26.30;98.70;;;;;;4942106;29;20386;-94
2022/06/29 05:42:27;;;;;;;3.15;2.53;;;26.30;98.60;;;;;;4942108;29;20027;-94
2022/06/29 05:44:53;;;;;;;1.35;1.25;;;26.50;98.40;;;;;;4942209;29;20062;-94
2022/06/29 05:47:19;;;;;;;3.67;2.70;;;26.50;98.20;;;;;;4941997;29;20459;-93
2022/06/29 05:49:45;;;;;;;1.33;1.10;;;26.20;98.30;;;;;;4941947;29;20062;-94
2022/06/29 05:52:11;;;;;;;2.08;1.88;;;26.20;98.80;;;;;;4958868;29;20025;-94
2022/06/29 05:54:37;;;;;;;1.60;1.50;;;26.30;98.70;;;;;;4941852;29;20024;-94
2022/06/29 05:57:04;;;;;;;2.22;2.05;;;26.30;99.20;;;;;;4942065;29;20083;-94
2022/06/29 05:59:29;;;;;;;3.53;2.10;;;26.40;99.00;;;;;;4941761;29;20039;-94
2022/06/29 06:01:55;;;;;;;2.75;1.88;;;26.40;98.60;;;;;;4941880;29;20363;-93
2022/06/29 06:04:21;;;;;;;1.70;1.60;;;26.30;99.00;;;;;;4941891;29;20171;-95
2022/06/29 06:06:47;;;;;;;1.98;1.88;;;26.50;99.40;;;;;;4941564;29;20034;-94
2022/06/29 06:09:12;;;;;;;3.15;2.90;;;26.70;99.00;;;;;;4941616;29;20079;-93
2022/06/29 06:11:38;;;;;;;1.58;1.48;;;26.80;98.30;;;;;;4941431;29;20020;-94
2022/06/29 06:14:04;;;;;;;1.75;1.65;;;26.70;98.70;;;;;;4941577;29;20035;-93
2022/06/29 06:16:29;;;;;;;3.05;2.75;;;26.50;99.00;;;;;;4941835;29;20065;-94
2022/06/29 06:18:55;;;;;;;4.25;2.45;;;26.70;99.10;;;;;;4938320;29;20051;-94
2022/06/29 06:21:21;;;;;;;2.72;2.13;;;26.60;99.70;;;;;;4938465;29;20034;-94
2022/06/29 06:23:47;;;;;;;2.85;2.65;;;26.70;99.20;;;;;;4938245;29;20067;-93
2022/06/29 06:26:13;;;;;;;2.03;1.85;;;26.60;99.30;;;;;;4938154;29;20439;-94
2022/06/29 06:28:40;;;;;;;2.17;1.98;;;26.60;99.10;;;;;;4937824;29;20443;-90
2022/06/29 06:31:07;;;;;;;1.58;1.48;;;26.40;99.60;;;;;;4938158;29;20024;-90
2022/06/29 06:33:33;;;;;;;2.80;2.03;;;26.60;99.00;;;;;;4938087;29;20494;-91
2022/06/29 06:35:59;;;;;;;2.20;2.03;;;26.80;98.70;;;;;;4937995;29;20427;-90
2022/06/29 06:38:24;;;;;;;2.33;2.13;;;26.90;98.20;;;;;;4937823;29;20028;-90
2022/06/29 06:43:34;;;;;;;2.38;2.20;;;26.90;98.00;;;;;;4938704;29;20399;-91
2022/06/29 06:46:00;;;;;;;2.72;2.53;;;27.10;98.30;;;;;;4937526;29;20032;-91
2022/06/29 06:48:26;;;;;;;1.77;1.45;;;27.20;98.10;;;;;;4938788;29;20056;-91
2022/06/29 06:50:52;;;;;;;1.67;1.58;;;27.10;97.80;;;;;;4937826;29;20490;-90
2022/06/29 06:53:17;;;;;;;1.17;1.08;;;27.30;98.20;;;;;;4937642;29;20027;-90
2022/06/29 06:55:43;;;;;;;2.90;2.00;;;27.30;97.70;;;;;;4938668;29;20028;-90
2022/06/29 06:58:09;;;;;;;1.67;1.58;;;27.40;97.80;;;;;;4937592;29;20028;-92
2022/06/29 07:00:35;;;;;;;1.77;1.60;;;27.40;97.70;;;;;;4937358;29;20114;-90
2022/06/29 07:03:00;;;;;;;1.40;1.30;;;27.50;97.60;;;;;;4950946;29;20010;-91
2022/06/29 07:05:26;;;;;;;1.23;1.13;;;27.50;97.60;;;;;;4943017;29;20032;-93
2022/06/29 07:07:51;;;;;;;2.13;1.92;;;27.50;97.20;;;;;;4937503;29;20027;-91
2022/06/29 07:10:17;;;;;;;2.28;1.23;;;27.60;97.50;;;;;;4937552;29;20038;-92
2022/06/29 07:12:43;;;;;;;1.73;1.63;;;27.40;97.10;;;;;;4937591;29;20107;-92
2022/06/29 07:15:09;;;;;;;0.75;0.75;;;27.40;97.50;;;;;;4938291;29;20364;-92
2022/06/29 07:17:34;;;;;;;2.05;1.73;;;27.50;98.00;;;;;;4936987;29;20055;-91
2022/06/29 07:20:00;;;;;;;2.47;2.20;;;27.70;97.50;;;;;;4937042;29;20491;-91
2022/06/29 07:22:26;;;;;;;8.55;2.35;;;27.80;95.70;;;;;;4938058;29;20110;-91
2022/06/29 07:24:51;;;;;;;0.98;0.93;;;28.00;96.40;;;;;;4938223;29;20382;-92
2022/06/29 07:27:17;;;;;;;2.13;2.03;;;28.20;95.50;;;;;;4936957;29;20028;-91
2022/06/29 07:29:43;;;;;;;3.53;2.17;;;28.20;94.20;;;;;;4936916;29;20526;-91
2022/06/29 07:32:09;;;;;;;1.00;1.00;;;28.30;95.50;;;;;;4936786;29;20313;-92
2022/06/29 07:34:35;;;;;;;2.55;2.35;;;28.40;95.00;;;;;;4936821;29;20028;-92
2022/06/29 07:37:01;;;;;;;2.10;2.00;;;28.50;94.40;;;;;;4936967;29;20023;-92
2022/06/29 07:39:30;;;;;;;3.50;2.00;;;28.60;95.10;;;;;;4936796;29;20027;-90
2022/06/29 07:41:56;;;;;;;1.33;1.27;;;28.50;95.10;;;;;;4936009;29;20525;-91
2022/06/29 07:44:21;;;;;;;1.50;1.40;;;28.60;94.90;;;;;;4936607;29;20286;-91
2022/06/29 07:46:47;;;;;;;1.95;1.85;;;28.80;95.50;;;;;;4936673;29;20028;-92
2022/06/29 07:49:13;;;;;;;2.28;2.08;;;28.90;94.00;;;;;;4936500;29;20063;-91
2022/06/29 07:51:39;;;;;;;2.30;2.15;;;29.00;93.40;;;;;;4936633;29;20037;-91
2022/06/29 07:54:04;;;;;;;7.70;2.95;;;29.00;93.60;;;;;;4946669;29;20027;-92
2022/06/29 07:56:32;;;;;;;1.65;1.55;;;29.10;92.80;;;;;;4952022;29;20479;-91
2022/06/29 07:59:00;;;;;;;0.50;0.50;;;29.20;91.90;;;;;;4936562;29;20106;-93
2022/06/29 08:01:26;;;;;;;0.95;0.95;;;29.20;91.60;;;;;;4936656;29;20027;-92
2022/06/29 08:03:53;;;;;;;1.48;1.38;;;29.40;91.10;;;;;;4936363;29;20479;-91
2022/06/29 08:06:19;;;;;;;1.65;1.55;;;29.50;90.10;;;;;;4936551;29;20028;-90
2022/06/29 08:08:44;;;;;;;1.38;1.23;;;29.60;90.10;;;;;;4935958;29;20040;-92
2022/06/29 08:11:10;;;;;;;1.73;1.63;;;29.70;90.20;;;;;;4936234;29;20027;-91
2022/06/29 08:13:38;;;;;;;1.52;1.40;;;29.80;88.30;;;;;;4936259;29;20099;-91
2022/06/29 08:16:07;;;;;;;0.80;0.80;;;29.90;88.80;;;;;;4936261;29;20066;-91
2022/06/29 08:18:34;;;;;;;2.38;2.20;;;30.10;86.90;;;;;;4936109;29;20131;-92
2022/06/29 08:21:00;;;;;;;1.33;1.25;;;30.20;85.30;;;;;;4936102;29;20039;-91
2022/06/29 08:23:26;;;;;;;1.27;1.17;;;30.20;82.20;;;;;;4936012;29;20034;-93
2022/06/29 08:25:51;;;;;;;1.77;1.67;;;30.10;82.70;;;;;;4936233;29;20111;-92
2022/06/29 08:28:17;;;;;;;1.55;1.33;;;30.30;84.40;;;;;;4935893;29;20031;-92
2022/06/29 08:30:44;;;;;;;0.63;0.63;;;30.40;80.90;;;;;;4936062;29;20032;-91
2022/06/29 08:33:09;;;;;;;1.65;1.55;;;30.40;81.70;;;;;;4936124;29;20023;-92
2022/06/29 08:35:35;;;;;;;1.90;1.75;;;30.40;81.00;;;;;;4936136;29;20379;-91
2022/06/29 08:38:02;;;;;;;1.45;1.17;;;30.30;82.50;;;;;;4935789;29;20062;-92
2022/06/29 08:40:42;;;;;;;1.50;1.27;;;30.30;81.20;;;;;;4936243;29;20027;-92
2022/06/29 08:43:11;;;;;;;1.13;1.08;;;30.20;80.90;;;;;;4936205;29;20106;-92
2022/06/29 08:45:46;;;;;;;0.88;0.88;;;30.20;81.20;;;;;;4954234;28;20031;-92
2022/06/29 08:48:13;;;;;;;1.20;1.20;;;30.00;81.90;;;;;;4935845;29;20028;-92
2022/06/29 08:50:41;;;;;;;0.75;0.73;;;29.90;81.90;;;;;;4935772;29;20036;-91
2022/06/29 08:53:09;;;;;;;1.58;1.48;;;29.60;82.10;;;;;;4938846;29;20472;-92
2022/06/29 08:55:46;;;;;;;0.45;0.45;;;29.70;82.70;;;;;;4939726;29;20032;-92
2022/06/29 08:58:18;;;;;;;2.70;1.90;;;29.70;82.10;;;;;;4939839;29;20031;-93
2022/06/29 09:00:44;;;;;;;1.88;1.73;;;29.60;81.60;;;;;;4939788;29;20034;-92
2022/06/29 09:03:15;;;;;;;2.13;1.30;;;29.60;79.80;;;;;;4939769;29;20091;-93
2022/06/29 09:05:54;;;;;;;1.05;1.02;;;29.70;79.80;;;;;;4939598;29;20036;-92
2022/06/29 09:08:20;;;;;;;1.45;1.33;;;29.80;78.70;;;;;;4939340;29;20119;-92
2022/06/29 09:10:47;;;;;;;1.42;1.33;;;29.90;77.20;;;;;;4939588;29;20122;-91
2022/06/29 09:13:22;;;;;;;0.75;0.75;;;30.00;76.90;;;;;;4939540;29;20035;-91
2022/06/29 09:15:56;;;;;;;2.55;1.55;;;30.10;73.90;;;;;;4939515;29;20475;-92
2022/06/29 09:18:32;;;;;;;1.30;1.02;;;30.30;74.70;;;;;;4939198;29;20075;-92
2022/06/29 09:21:03;;;;;;;1.23;1.23;;;30.40;76.80;;;;;;4939286;29;20023;-92
2022/06/29 09:23:31;;;;;;;1.08;1.05;;;30.50;71.00;;;;;;4939305;29;20036;-92
2022/06/29 09:25:57;;;;;;;2.25;2.05;;;30.60;70.90;;;;;;4939232;29;20439;-92
2022/06/29 09:28:31;;;;;;;0.75;0.75;;;30.60;70.10;;;;;;4939100;29;20450;-93
2022/06/29 09:30:58;;;;;;;0.95;0.95;;;30.60;70.40;;;;;;4949430;29;20035;-91
2022/06/29 09:33:26;;;;;;;0.68;0.68;;;30.70;68.60;;;;;;4942165;29;20118;-92
2022/06/29 09:36:14;;;;;;;0.95;0.93;;;30.70;69.60;;;;;;4941279;29;20059;-93
2022/06/29 09:38:41;;;;;;;1.90;1.77;;;30.60;69.90;;;;;;4946225;29;20024;-92
2022/06/29 09:41:08;;;;;;;0.60;0.60;;;30.70;70.80;;;;;;4946519;29;20055;-92
2022/06/29 09:43:37;;;;;;;0.50;0.50;;;30.90;71.20;;;;;;4938893;29;20032;-91
2022/06/29 09:46:04;;;;;;;1.40;1.30;;;31.00;70.50;;;;;;4939290;29;20379;-92
2022/06/29 09:48:32;;;;;;;1.13;1.10;;;31.00;69.60;;;;;;4938856;29;20063;-93
2022/06/29 09:50:59;;;;;;;0.32;0.32;;;31.10;68.60;;;;;;4938746;29;20028;-91
2022/06/29 09:53:38;;;;;;;1.30;0.68;;;31.20;70.10;;;;;;4938648;29;20024;-93
2022/06/29 09:56:06;;;;;;;1.60;1.50;;;31.30;69.50;;;;;;4939094;29;20024;-93
2022/06/29 09:58:52;;;;;;;1.02;0.88;;;31.30;68.50;;;;;;4939108;29;20024;-93
2022/06/29 10:04:04;;;;;;;1.65;1.55;;;31.00;67.30;;;;;;4939946;29;20122;-92
2022/06/29 10:06:30;;;;;;;1.17;1.17;;;30.90;69.10;;;;;;4938746;29;20395;-93
2022/06/29 10:08:57;;;;;;;1.02;1.02;;;31.00;70.30;;;;;;4938470;29;20050;-93
2022/06/29 10:14:50;;;;;;;1.42;1.33;;;30.90;70.60;;;;;;4939636;29;20166;-92
2022/06/29 10:17:22;;;;;;;0.68;0.68;;;31.00;70.10;;;;;;4938271;29;20432;-91
2022/06/29 10:19:54;;;;;;;1.10;1.10;;;31.00;72.30;;;;;;4938268;29;20043;-92
2022/06/29 10:22:20;;;;;;;0.85;0.85;;;31.20;71.30;;;;;;4938278;29;20039;-92
2022/06/29 10:25:05;;;;;;;1.63;1.00;;;31.20;69.10;;;;;;4938314;29;20032;-92
2022/06/29 10:27:31;;;;;;;0.75;0.75;;;31.30;69.70;;;;;;4953229;29;20031;-93
2022/06/29 10:30:19;;;;;;;0.75;0.75;;;31.30;70.40;;;;;;4937873;29;20443;-92
2022/06/29 10:32:46;;;;;;;1.53;1.33;;;31.40;70.30;;;;;;4937924;29;20163;-92
2022/06/29 10:35:11;;;;;;;4.40;1.70;;;31.50;70.70;;;;;;4937985;29;20024;-93
2022/06/29 10:37:52;;;;;;;0.65;0.65;;;31.40;68.40;;;;;;4937799;29;20023;-92
2022/06/29 10:40:23;;;;;;;1.35;1.25;;;31.50;70.80;;;;;;4937912;29;20078;-93
2022/06/29 10:45:47;;;;;;;1.17;1.00;;;31.50;70.00;;;;;;4939215;29;20482;-92
2022/06/29 10:48:13;;;;;;;;;;;31.50;69.20;;;;;;4937933;29;20454;-92
2022/06/29 10:50:43;;;;;;;1.13;1.13;;;31.50;67.50;;;;;;4937732;29;20370;-92
2022/06/29 10:53:11;;;;;;;0.70;0.70;;;31.50;67.20;;;;;;4937569;29;20114;-92
2022/06/29 10:55:52;;;;;;;1.50;1.43;;;31.60;67.30;;;;;;4938011;29;20446;-91
2022/06/29 10:58:18;;;;;;;0.88;0.88;;;31.60;67.70;;;;;;4938233;29;20035;-92
2022/06/29 11:00:46;;;;;;;0.73;0.73;;;31.50;64.30;;;;;;4937755;29;20038;-93
2022/06/29 11:03:17;;;;;;;0.77;0.77;;;31.60;66.70;;;;;;4937555;29;20030;-93
2022/06/29 11:14:01;;;;;;;0.85;0.85;;;31.80;66.20;;;;;;4938780;29;20108;-93
2022/06/29 11:16:36;;;;;;;1.33;1.30;;;31.80;67.90;;;;;;4936212;29;20024;-91
2022/06/29 11:19:03;;;;;;;1.08;1.08;;;31.90;66.80;;;;;;4936970;29;20047;-92
2022/06/29 11:21:30;;;;;;;0.95;0.95;;;32.00;68.50;;;;;;4937103;29;20031;-92
2022/06/29 11:24:04;;;;;;;0.85;0.85;;;32.00;65.90;;;;;;4936994;29;20039;-92
2022/06/29 11:26:34;;;;;;;1.35;1.02;;;32.20;68.00;;;;;;4937140;29;20035;-92
2022/06/29 11:29:01;;;;;;;1.48;1.48;;;32.20;65.70;;;;;;4936933;29;20040;-95
2022/06/29 11:31:27;;;;;;;1.27;1.27;;;32.10;65.50;;;;;;4936927;29;20114;-93
2022/06/29 11:33:53;;;;;;;1.40;1.23;;;32.10;65.60;;;;;;4937197;29;20377;-92
2022/06/29 11:36:38;;;;;;;1.27;1.23;;;32.10;65.40;;;;;;4936937;29;20503;-92
2022/06/29 11:39:06;;;;;;;0.85;0.85;;;32.20;67.20;;;;;;4936851;29;20032;-91
2022/06/29 11:44:27;;;;;;;1.27;1.20;;;32.30;66.40;;;;;;4938264;29;20065;-93
2022/06/29 11:46:53;;;;;;;0.82;0.82;;;32.50;64.10;;;;;;4936652;29;20024;-93
2022/06/29 11:49:36;;;;;;;4.95;2.40;;;33.00;65.00;;;;;;4936789;29;20083;-93
2022/06/29 11:52:05;;;;;;;1.30;1.20;;;33.70;64.70;;;;;;4936385;29;20082;-93
2022/06/29 11:54:35;;;;;;;;;;;34.60;60.60;;;;;;4937072;29;20028;-93
2022/06/29 11:57:04;;;;;;;1.20;1.02;;;35.50;60.40;;;;;;4936832;29;19914;-93
2022/06/29 11:59:31;;;;;;;;;;;36.40;60.00;;;;;;4937246;29;20562;-93
2022/06/29 12:01:59;;;;;;;0.70;0.70;;;37.20;58.40;;;;;;4937101;29;19907;-93
2022/06/29 12:04:37;;;;;;;1.05;0.88;;;37.90;54.40;;;;;;4936474;29;20411;-95
2022/06/29 12:07:04;;;;;;;1.00;0.80;;;38.00;54.10;;;;;;4936704;29;20119;-95
2022/06/29 12:09:30;;;;;;;1.40;1.38;;;38.40;55.10;;;;;;4948422;29;20056;-94
2022/06/29 12:11:56;;;;;;;1.02;1.02;;;37.80;53.80;;;;;;4940648;29;20024;-96
2022/06/29 12:14:22;;;;;;;0.85;0.70;;;38.20;54.80;;;;;;4940850;29;20035;-95
2022/06/29 12:16:47;;;;;;;0.80;0.80;;;38.40;53.30;;;;;;4937530;29;20027;-94
2022/06/29 12:19:13;;;;;;;0.90;0.90;;;38.60;52.10;;;;;;4936127;29;20047;-96
2022/06/29 12:21:39;;;;;;;0.63;0.63;;;39.40;53.10;;;;;;4936381;29;20079;-94
2022/06/29 12:24:05;;;;;;;1.30;1.30;;;39.40;51.60;;;;;;4936339;29;20036;-96
2022/06/29 12:26:31;;;;;;;0.75;0.75;;;39.40;50.70;;;;;;4935941;29;20032;-96
2022/06/29 12:28:56;;;;;;;1.27;1.17;;;39.90;48.80;;;;;;4936311;29;20060;-96
2022/06/29 12:31:22;;;;;;;0.77;0.77;;;40.20;49.10;;;;;;4936024;29;20490;-95
2022/06/29 12:33:48;;;;;;;0.80;0.52;;;40.40;48.60;;;;;;4936134;29;20054;-95
2022/06/29 12:36:14;;;;;;;1.35;0.85;;;40.30;47.70;;;;;;4936251;29;20036;-94
2022/06/29 12:38:40;;;;;;;2.30;1.52;;;39.80;48.70;;;;;;4936001;29;20023;-93
2022/06/29 12:41:07;;;;;;;0.90;0.90;;;40.20;48.60;;;;;;4936041;29;20031;-92
2022/06/29 12:43:32;;;;;;;0.43;0.40;;;40.50;48.80;;;;;;4936152;29;20062;-93
2022/06/29 12:45:59;;;;;;;1.08;1.02;;;41.20;48.20;;;;;;4936111;29;20487;-94
2022/06/29 12:48:25;;;;;;;0.85;0.85;;;41.30;46.80;;;;;;4935814;29;20024;-94
2022/06/29 12:50:51;;;;;;;0.70;0.70;;;41.40;45.50;;;;;;4935834;29;20139;-95
2022/06/29 12:53:17;;;;;;;0.55;0.55;;;41.30;46.80;;;;;;4936131;29;20027;-95
2022/06/29 12:55:43;;;;;;;1.05;0.75;;;40.50;46.30;;;;;;4936089;29;20020;-94
2022/06/29 12:58:09;;;;;;;0.95;0.57;;;40.60;47.50;;;;;;4935901;29;20131;-94
2022/06/29 13:00:34;;;;;;;1.27;1.15;;;40.20;46.50;;;;;;4935846;29;20035;-94
2022/06/29 13:03:00;;;;;;;1.67;1.58;;;40.60;47.20;;;;;;4935744;29;20031;-94
2022/06/29 13:05:26;;;;;;;1.52;0.57;;;40.00;45.00;;;;;;4935838;29;20046;-94
2022/06/29 13:07:52;;;;;;;0.35;0.35;;;40.20;46.10;;;;;;4935697;29;20039;-93
2022/06/29 13:10:18;;;;;;;1.42;1.17;;;40.00;45.60;;;;;;4935679;29;20031;-94
2022/06/29 13:12:44;;;;;;;0.73;0.73;;;40.20;45.40;;;;;;4936072;29;20028;-95